Time;durP1;ratioP1;P1;durP2;ratioP2;P2;SDS_P1;SDS_P2;PMS_P1;PMS_P2;Temp;Humidity;BMP_temperature;BMP_pressure;BME280_temperature;BME280_humidity;BME280_pressure;Samples;Min_cycle;Max_cycle;Signal;HPM_P1;HPM_P2
2021/05/14 00:01:56;;;;;;;4.20;3.90;;;11.60;99.90;;;;;;5104608;28;20468;-68
2021/05/14 00:04:23;;;;;;;4.67;4.27;;;11.60;99.90;;;;;;5105469;28;20782;-69
2021/05/14 00:06:51;;;;;;;4.63;4.23;;;11.60;99.90;;;;;;5106507;28;20884;-69
2021/05/14 00:09:18;;;;;;;5.10;4.33;;;11.60;99.90;;;;;;5104560;28;20789;-69
2021/05/14 00:11:46;;;;;;;5.60;4.00;;;11.60;99.90;;;;;;5104254;28;20467;-68
2021/05/14 00:14:13;;;;;;;4.20;3.90;;;11.60;99.90;;;;;;5104876;28;20457;-69
2021/05/14 00:16:43;;;;;;;4.73;4.23;;;11.60;99.90;;;;;;5106059;28;20924;-69
2021/05/14 00:19:10;;;;;;;4.30;3.90;;;11.60;99.90;;;;;;5110746;28;20478;-69
2021/05/14 00:21:37;;;;;;;3.83;3.43;;;11.50;99.90;;;;;;5113281;28;20461;-69
2021/05/14 00:24:04;;;;;;;3.83;3.53;;;11.50;99.90;;;;;;5112931;28;20834;-68
2021/05/14 00:26:31;;;;;;;3.70;3.37;;;11.50;99.90;;;;;;5113444;28;20459;-69
2021/05/14 00:28:57;;;;;;;2.47;2.27;;;11.50;99.90;;;;;;5112885;28;20476;-69
2021/05/14 00:31:24;;;;;;;2.80;2.60;;;11.50;99.90;;;;;;5113850;28;20480;-68
2021/05/14 00:33:50;;;;;;;4.60;3.20;;;11.50;99.90;;;;;;5112738;28;20453;-69
2021/05/14 00:36:17;;;;;;;3.17;2.90;;;11.50;99.90;;;;;;5113915;28;20515;-69
2021/05/14 00:38:43;;;;;;;2.50;2.20;;;11.50;99.90;;;;;;5113697;28;20510;-69
2021/05/14 00:41:09;;;;;;;2.70;2.50;;;11.50;99.90;;;;;;5111760;28;20452;-69
2021/05/14 00:43:36;;;;;;;3.80;2.47;;;11.50;99.90;;;;;;5111399;28;20514;-68
2021/05/14 00:46:02;;;;;;;2.30;2.10;;;11.50;99.90;;;;;;5110497;28;20453;-68
2021/05/14 00:48:29;;;;;;;2.20;2.00;;;11.50;99.90;;;;;;5109565;28;20480;-69
2021/05/14 00:50:55;;;;;;;2.40;2.20;;;11.50;99.90;;;;;;5108357;28;20546;-69
2021/05/14 00:53:23;;;;;;;2.20;2.00;;;11.50;99.90;;;;;;5110353;28;20939;-69
2021/05/14 00:55:49;;;;;;;2.43;2.23;;;11.50;99.90;;;;;;5109590;28;20472;-69
2021/05/14 00:58:15;;;;;;;1.83;1.63;;;11.60;99.90;;;;;;5110873;28;20483;-70
2021/05/14 01:00:42;;;;;;;2.30;2.10;;;11.50;99.90;;;;;;5113281;28;20461;-69
2021/05/14 01:03:13;;;;;;;2.17;1.97;;;11.50;99.90;;;;;;5114409;28;20441;-69
2021/05/14 01:05:40;;;;;;;2.30;2.10;;;11.50;99.90;;;;;;5110968;28;20514;-69
2021/05/14 01:08:07;;;;;;;2.40;2.20;;;11.50;99.90;;;;;;5113280;28;20449;-69
2021/05/14 01:10:34;;;;;;;1.83;1.73;;;11.50;99.90;;;;;;5113889;28;20512;-69
2021/05/14 01:13:00;;;;;;;1.97;1.77;;;11.50;99.90;;;;;;5113774;28;20483;-69
2021/05/14 01:15:27;;;;;;;2.13;1.93;;;11.50;99.90;;;;;;5112687;28;20780;-69
2021/05/14 01:17:53;;;;;;;2.20;1.90;;;11.50;99.90;;;;;;5113096;28;20528;-69
2021/05/14 01:20:24;;;;;;;2.00;1.90;;;11.50;99.90;;;;;;5112567;28;20453;-69
2021/05/14 01:22:50;;;;;;;2.47;2.27;;;11.50;99.90;;;;;;5113221;28;20444;-69
2021/05/14 01:25:17;;;;;;;2.27;2.07;;;11.50;99.90;;;;;;5114797;28;20459;-69
2021/05/14 01:27:43;;;;;;;2.30;2.10;;;11.50;99.90;;;;;;5114200;28;20449;-69
2021/05/14 01:30:10;;;;;;;2.27;2.07;;;11.40;99.90;;;;;;5114390;28;20449;-69
2021/05/14 01:32:37;;;;;;;2.10;2.00;;;11.40;99.90;;;;;;5113200;28;20481;-69
2021/05/14 01:35:04;;;;;;;3.07;2.50;;;11.40;99.90;;;;;;5109991;28;20494;-69
2021/05/14 01:37:31;;;;;;;2.63;2.43;;;11.40;99.90;;;;;;5109623;28;20461;-69
2021/05/14 01:39:57;;;;;;;2.60;2.40;;;11.40;99.90;;;;;;5110155;28;20477;-69
2021/05/14 01:42:24;;;;;;;2.17;1.97;;;11.40;99.90;;;;;;5107515;28;20571;-69
2021/05/14 01:44:50;;;;;;;2.07;1.93;;;11.30;99.90;;;;;;5108051;28;20461;-69
2021/05/14 01:47:17;;;;;;;2.30;2.10;;;11.30;99.90;;;;;;5109102;28;20469;-69
2021/05/14 01:49:43;;;;;;;2.80;2.37;;;11.40;99.90;;;;;;5110817;28;20442;-69
2021/05/14 01:52:10;;;;;;;2.90;2.70;;;11.30;99.90;;;;;;5112110;28;20595;-69
2021/05/14 01:54:37;;;;;;;2.90;2.70;;;11.30;99.90;;;;;;5109697;28;20457;-69
2021/05/14 01:57:03;;;;;;;2.33;2.13;;;11.30;99.90;;;;;;5108822;28;20453;-69
2021/05/14 01:59:30;;;;;;;4.13;2.70;;;11.30;99.90;;;;;;5109446;28;20484;-69
2021/05/14 02:01:56;;;;;;;2.43;2.23;;;11.30;99.90;;;;;;5109243;28;20484;-69
2021/05/14 02:04:22;;;;;;;2.60;2.40;;;11.30;99.90;;;;;;5110021;28;20530;-70
2021/05/14 02:06:48;;;;;;;3.00;2.20;;;11.30;99.90;;;;;;5109825;28;20457;-69
2021/05/14 02:09:15;;;;;;;2.70;2.50;;;11.30;99.90;;;;;;5108302;28;20460;-69
2021/05/14 02:11:44;;;;;;;2.30;2.10;;;11.30;99.90;;;;;;5107514;28;20582;-69
2021/05/14 02:14:10;;;;;;;3.20;3.00;;;11.30;99.90;;;;;;5109682;28;20461;-69
2021/05/14 02:16:37;;;;;;;5.87;2.63;;;11.40;99.90;;;;;;5108563;28;20464;-69
2021/05/14 02:19:03;;;;;;;2.63;2.33;;;11.40;99.90;;;;;;5107742;28;20490;-69
2021/05/14 02:21:29;;;;;;;2.20;2.10;;;11.40;99.90;;;;;;5108968;28;20453;-69
2021/05/14 02:23:56;;;;;;;2.70;2.50;;;11.40;99.90;;;;;;5108324;28;20497;-69
2021/05/14 02:26:22;;;;;;;2.57;2.37;;;11.40;99.90;;;;;;5109889;28;20937;-69
2021/05/14 02:28:49;;;;;;;3.27;2.93;;;11.40;99.90;;;;;;5108108;28;20463;-69
2021/05/14 02:31:16;;;;;;;2.77;2.57;;;11.50;99.90;;;;;;5108282;28;20538;-69
2021/05/14 02:33:42;;;;;;;2.87;2.67;;;11.40;99.90;;;;;;5109217;28;20445;-69
2021/05/14 02:36:09;;;;;;;3.57;2.80;;;11.40;99.90;;;;;;5108442;28;20454;-69
2021/05/14 02:38:35;;;;;;;3.47;3.17;;;11.50;99.90;;;;;;5107766;28;20809;-69
2021/05/14 02:41:04;;;;;;;3.53;2.70;;;11.50;99.90;;;;;;5107457;28;20540;-69
2021/05/14 02:43:31;;;;;;;3.00;2.80;;;11.50;99.90;;;;;;5109544;28;20445;-69
2021/05/14 02:45:58;;;;;;;2.80;2.60;;;11.50;99.90;;;;;;5110645;28;20510;-69
2021/05/14 02:48:24;;;;;;;5.20;2.83;;;11.50;99.90;;;;;;5111437;28;20485;-69
2021/05/14 02:50:50;;;;;;;3.03;2.83;;;11.50;99.90;;;;;;5110936;28;20454;-69
2021/05/14 02:53:17;;;;;;;3.07;2.87;;;11.50;99.90;;;;;;5112265;28;20450;-69
2021/05/14 02:55:43;;;;;;;2.93;2.73;;;11.50;99.90;;;;;;5111115;28;20450;-69
2021/05/14 02:58:09;;;;;;;3.63;3.20;;;11.50;99.90;;;;;;5109207;28;20446;-69
2021/05/14 03:00:36;;;;;;;3.60;3.17;;;11.50;99.90;;;;;;5108396;28;20457;-69
2021/05/14 03:03:03;;;;;;;2.90;2.70;;;11.50;99.90;;;;;;5108508;28;20464;-69
2021/05/14 03:05:29;;;;;;;3.20;2.90;;;11.50;99.90;;;;;;5110779;28;20543;-69
2021/05/14 03:07:56;;;;;;;3.47;3.17;;;11.50;99.90;;;;;;5108505;28;20454;-69
2021/05/14 03:10:22;;;;;;;3.57;3.27;;;11.50;99.90;;;;;;5108744;28;20460;-70
2021/05/14 03:12:48;;;;;;;3.57;3.27;;;11.50;99.90;;;;;;5108671;28;20446;-69
2021/05/14 03:15:15;;;;;;;3.20;2.90;;;11.50;99.90;;;;;;5107658;28;20464;-69
2021/05/14 03:17:41;;;;;;;3.97;3.57;;;11.40;99.90;;;;;;5109569;28;20457;-69
2021/05/14 03:20:09;;;;;;;3.13;2.93;;;11.40;99.90;;;;;;5108914;28;20564;-69
2021/05/14 03:22:36;;;;;;;3.53;3.23;;;11.40;99.90;;;;;;5109256;28;20876;-68
2021/05/14 03:25:04;;;;;;;3.70;3.40;;;11.40;99.90;;;;;;5110324;28;20457;-69
2021/05/14 03:27:30;;;;;;;5.20;4.30;;;11.40;99.90;;;;;;5109857;28;20457;-68
2021/05/14 03:29:58;;;;;;;4.13;3.83;;;11.40;99.90;;;;;;5109435;28;20445;-68
2021/05/14 03:32:24;;;;;;;4.40;3.57;;;11.40;99.90;;;;;;5109386;28;20860;-69
2021/05/14 03:34:51;;;;;;;4.03;3.70;;;11.50;99.90;;;;;;5109026;28;20462;-68
2021/05/14 03:37:18;;;;;;;4.00;3.70;;;11.50;99.90;;;;;;5107903;28;20453;-69
2021/05/14 03:39:45;;;;;;;3.80;3.40;;;11.50;99.90;;;;;;5109004;28;20506;-68
2021/05/14 03:42:15;;;;;;;5.50;4.27;;;11.50;99.90;;;;;;5108815;28;20479;-68
2021/05/14 03:44:42;;;;;;;8.23;4.40;;;11.50;99.90;;;;;;5107190;28;20806;-69
2021/05/14 03:47:09;;;;;;;4.33;3.93;;;11.50;99.90;;;;;;5107972;28;20453;-68
2021/05/14 03:49:36;;;;;;;4.77;4.17;;;11.50;99.90;;;;;;5108289;28;20457;-69
2021/05/14 03:52:05;;;;;;;4.60;4.20;;;11.50;99.90;;;;;;5107876;28;20464;-69
2021/05/14 03:54:32;;;;;;;3.97;3.67;;;11.50;99.90;;;;;;5108428;28;20449;-68
2021/05/14 03:56:59;;;;;;;4.50;4.10;;;11.50;99.90;;;;;;5107471;28;20524;-70
2021/05/14 03:59:25;;;;;;;4.47;4.00;;;11.50;99.90;;;;;;5108022;28;20474;-69
2021/05/14 04:01:51;;;;;;;5.37;4.40;;;11.50;99.90;;;;;;5107341;28;20457;-68
2021/05/14 04:04:18;;;;;;;4.80;4.30;;;11.50;99.90;;;;;;5107263;28;20457;-69
2021/05/14 04:06:44;;;;;;;4.37;4.07;;;11.50;99.90;;;;;;5107028;28;20449;-68
2021/05/14 04:09:10;;;;;;;4.40;4.00;;;11.50;99.90;;;;;;5107229;28;20455;-68
2021/05/14 04:14:30;;;;;;;3.70;3.37;;;11.60;99.90;;;;;;5106713;28;20432;-68
2021/05/14 04:16:57;;;;;;;3.50;3.20;;;11.50;99.90;;;;;;5106620;28;20437;-69
2021/05/14 04:19:24;;;;;;;3.30;3.10;;;11.50;99.90;;;;;;5106384;28;20485;-69
2021/05/14 04:21:52;;;;;;;3.50;3.20;;;11.40;99.90;;;;;;5105850;28;20457;-69
2021/05/14 04:24:19;;;;;;;3.07;2.77;;;11.40;99.90;;;;;;5106590;28;20457;-69
2021/05/14 04:26:47;;;;;;;7.30;3.20;;;11.40;99.90;;;;;;5106560;28;20453;-69
2021/05/14 04:29:13;;;;;;;4.13;3.10;;;11.40;99.90;;;;;;5106413;28;20940;-69
2021/05/14 04:31:41;;;;;;;3.40;3.10;;;11.40;99.90;;;;;;5106203;28;20973;-69
2021/05/14 04:34:08;;;;;;;3.37;2.80;;;11.30;99.90;;;;;;5109227;28;20467;-69
2021/05/14 04:36:34;;;;;;;2.60;2.40;;;11.30;99.90;;;;;;5110053;28;20454;-69
2021/05/14 04:39:01;;;;;;;3.00;2.70;;;11.30;99.90;;;;;;5109866;28;20503;-69
2021/05/14 04:41:27;;;;;;;2.80;2.60;;;11.30;99.90;;;;;;5110191;28;20449;-69
2021/05/14 04:43:54;;;;;;;2.20;2.00;;;11.20;99.90;;;;;;5109892;28;20452;-69
2021/05/14 04:46:20;;;;;;;2.53;2.33;;;11.20;99.90;;;;;;5110131;28;20461;-69
2021/05/14 04:48:47;;;;;;;2.40;2.20;;;11.20;99.90;;;;;;5109280;28;20825;-70
2021/05/14 04:51:13;;;;;;;2.10;1.90;;;11.20;99.90;;;;;;5110105;28;20460;-69
2021/05/14 04:53:39;;;;;;;2.00;1.80;;;11.20;99.90;;;;;;5109601;28;20449;-69
2021/05/14 04:56:06;;;;;;;2.60;2.40;;;11.20;99.90;;;;;;5109499;28;20454;-69
2021/05/14 04:58:32;;;;;;;2.73;2.30;;;11.20;99.90;;;;;;5110797;28;20525;-70
2021/05/14 05:00:59;;;;;;;3.47;2.20;;;11.30;99.90;;;;;;5109784;28;20453;-69
2021/05/14 05:03:26;;;;;;;2.87;2.10;;;11.30;99.90;;;;;;5110343;28;20457;-70
2021/05/14 05:05:52;;;;;;;2.23;2.03;;;11.30;99.90;;;;;;5109821;28;20453;-70
2021/05/14 05:08:18;;;;;;;2.47;2.27;;;11.20;99.90;;;;;;5110980;28;20454;-70
2021/05/14 05:10:45;;;;;;;2.87;2.60;;;11.20;99.90;;;;;;5110181;28;20453;-69
2021/05/14 05:13:15;;;;;;;5.20;2.80;;;11.10;99.90;;;;;;5110550;28;20820;-69
2021/05/14 05:15:42;;;;;;;3.60;3.30;;;11.10;99.90;;;;;;5110192;28;20473;-68
2021/05/14 05:18:09;;;;;;;3.33;3.03;;;11.00;99.90;;;;;;5110078;28;20453;-69
2021/05/14 05:20:35;;;;;;;3.37;3.00;;;11.00;99.90;;;;;;5109633;28;20481;-69
2021/05/14 05:23:01;;;;;;;3.73;3.40;;;11.00;99.90;;;;;;5109301;28;20449;-69
2021/05/14 05:25:28;;;;;;;3.10;2.80;;;10.90;99.90;;;;;;5109618;28;20449;-69
2021/05/14 05:27:54;;;;;;;3.87;3.57;;;10.90;99.90;;;;;;5109304;28;20456;-70
2021/05/14 05:30:23;;;;;;;4.47;3.43;;;10.90;99.90;;;;;;5109244;28;20461;-70
2021/05/14 05:32:50;;;;;;;5.13;4.17;;;10.80;99.90;;;;;;5109519;28;20472;-69
2021/05/14 05:35:17;;;;;;;3.63;3.33;;;10.80;99.90;;;;;;5110838;28;20468;-69
2021/05/14 05:37:44;;;;;;;3.70;3.40;;;10.80;99.90;;;;;;5109162;28;20461;-69
2021/05/14 05:40:10;;;;;;;3.20;2.90;;;10.80;99.90;;;;;;5109743;28;20508;-69
2021/05/14 05:42:37;;;;;;;4.97;3.73;;;10.80;99.90;;;;;;5109978;28;20487;-69
2021/05/14 05:45:05;;;;;;;3.60;3.30;;;10.80;99.90;;;;;;5110102;28;20457;-68
2021/05/14 05:47:32;;;;;;;3.20;2.90;;;10.80;99.90;;;;;;5111062;28;20887;-69
2021/05/14 05:49:59;;;;;;;2.97;2.73;;;10.80;99.90;;;;;;5111784;28;20479;-69
2021/05/14 05:52:26;;;;;;;4.10;3.00;;;10.80;99.90;;;;;;5111957;28;20446;-70
2021/05/14 05:54:52;;;;;;;2.73;2.53;;;10.80;99.90;;;;;;5113890;28;20454;-69
2021/05/14 05:57:21;;;;;;;3.23;2.93;;;10.80;99.90;;;;;;5113183;28;20526;-69
2021/05/14 05:59:48;;;;;;;2.87;2.60;;;10.80;99.90;;;;;;5112665;28;20812;-69
2021/05/14 06:02:14;;;;;;;4.43;2.93;;;10.80;99.90;;;;;;5111653;28;20465;-69
2021/05/14 06:04:41;;;;;;;3.20;2.90;;;10.80;99.90;;;;;;5111406;28;20943;-70
2021/05/14 06:07:07;;;;;;;3.57;3.27;;;10.90;99.90;;;;;;5111302;28;20445;-70
2021/05/14 06:09:34;;;;;;;3.30;3.00;;;10.90;99.90;;;;;;5112231;28;20517;-69
2021/05/14 06:12:01;;;;;;;3.60;3.30;;;10.90;99.90;;;;;;5111555;28;20502;-68
2021/05/14 06:14:27;;;;;;;3.50;3.20;;;10.90;99.90;;;;;;5110144;28;20804;-70
2021/05/14 06:16:54;;;;;;;2.83;2.63;;;10.90;99.90;;;;;;5111285;28;20487;-70
2021/05/14 06:19:28;;;;;;;3.50;3.20;;;10.90;99.90;;;;;;5109964;28;20470;-69
2021/05/14 06:21:54;;;;;;;3.93;3.03;;;10.90;99.90;;;;;;5110170;28;20445;-70
2021/05/14 06:24:21;;;;;;;3.33;3.03;;;10.90;99.90;;;;;;5112168;28;20449;-69
2021/05/14 06:26:48;;;;;;;3.87;3.57;;;10.90;99.90;;;;;;5114363;28;20464;-69
2021/05/14 06:29:16;;;;;;;3.53;3.23;;;10.90;99.90;;;;;;5114686;28;20454;-70
2021/05/14 06:31:42;;;;;;;5.17;3.40;;;10.90;99.90;;;;;;5115771;28;20481;-69
2021/05/14 06:34:08;;;;;;;4.40;4.00;;;10.90;99.90;;;;;;5116870;28;20454;-70
2021/05/14 06:36:35;;;;;;;5.07;3.90;;;11.00;99.90;;;;;;5114649;28;20461;-69
2021/05/14 06:39:01;;;;;;;3.90;3.47;;;11.00;99.90;;;;;;5114372;28;20541;-69
2021/05/14 06:41:27;;;;;;;4.60;4.20;;;11.10;99.90;;;;;;5114945;28;20464;-69
2021/05/14 06:43:58;;;;;;;7.50;4.17;;;11.10;99.90;;;;;;5114985;28;20450;-69
2021/05/14 06:46:24;;;;;;;4.00;3.60;;;11.10;99.90;;;;;;5107263;28;20488;-67
2021/05/14 06:48:51;;;;;;;4.53;4.03;;;11.10;99.90;;;;;;5096322;28;20449;-67
2021/05/14 06:51:17;;;;;;;4.73;3.80;;;11.20;99.90;;;;;;5096595;28;20461;-67
2021/05/14 06:53:43;;;;;;;8.83;3.90;;;11.20;99.90;;;;;;5096851;28;20453;-67
2021/05/14 06:56:10;;;;;;;3.70;3.13;;;11.20;99.90;;;;;;5096509;28;20458;-69
2021/05/14 06:58:36;;;;;;;3.90;3.50;;;11.20;99.90;;;;;;5097345;28;20453;-69
2021/05/14 07:01:04;;;;;;;3.93;3.63;;;11.10;99.90;;;;;;5096690;28;20537;-68
2021/05/14 07:03:30;;;;;;;4.53;3.73;;;11.10;99.90;;;;;;5095996;28;20453;-67
2021/05/14 07:05:56;;;;;;;4.60;3.90;;;11.10;99.90;;;;;;5095971;28;20979;-68
2021/05/14 07:08:22;;;;;;;5.47;4.40;;;11.00;99.90;;;;;;5096422;28;20453;-69
2021/05/14 07:10:48;;;;;;;5.83;4.40;;;10.90;99.90;;;;;;5096440;28;20457;-68
2021/05/14 07:13:15;;;;;;;5.70;4.20;;;10.90;99.90;;;;;;5106289;28;20493;-68
2021/05/14 07:15:41;;;;;;;4.83;3.97;;;10.80;99.90;;;;;;5112719;28;20452;-69
2021/05/14 07:18:08;;;;;;;5.13;4.10;;;10.80;99.90;;;;;;5115177;28;20455;-69
2021/05/14 07:20:36;;;;;;;4.90;4.20;;;10.80;99.90;;;;;;5108508;28;20784;-67
2021/05/14 07:23:02;;;;;;;4.67;4.20;;;10.80;99.90;;;;;;5098180;28;20453;-68
2021/05/14 07:25:29;;;;;;;5.13;4.30;;;10.70;99.90;;;;;;5098305;28;20483;-68
2021/05/14 07:27:55;;;;;;;7.20;4.70;;;10.70;99.90;;;;;;5097678;28;20461;-68
2021/05/14 07:30:22;;;;;;;5.10;4.60;;;10.70;99.90;;;;;;5097682;28;20485;-68
2021/05/14 07:32:48;;;;;;;5.20;4.10;;;10.60;99.90;;;;;;5097021;28;20481;-68
2021/05/14 07:35:15;;;;;;;5.73;4.00;;;10.60;99.90;;;;;;5098522;28;20843;-67
2021/05/14 07:37:41;;;;;;;5.43;4.13;;;10.50;99.90;;;;;;5098293;28;20560;-68
2021/05/14 07:40:09;;;;;;;3.83;3.50;;;10.50;99.90;;;;;;5098232;28;20461;-68
2021/05/14 07:42:35;;;;;;;3.77;3.47;;;10.50;99.90;;;;;;5098133;28;20464;-67
2021/05/14 07:45:01;;;;;;;3.97;3.57;;;10.50;99.90;;;;;;5098310;28;20480;-67
2021/05/14 07:47:28;;;;;;;3.60;3.30;;;10.50;99.90;;;;;;5098920;28;20463;-67
2021/05/14 07:49:54;;;;;;;3.90;3.50;;;10.50;99.90;;;;;;5098618;28;20476;-67
2021/05/14 07:52:21;;;;;;;3.30;3.10;;;10.60;99.90;;;;;;5098643;28;20457;-67
2021/05/14 07:54:47;;;;;;;3.23;3.00;;;10.60;99.90;;;;;;5099731;28;20453;-68
2021/05/14 07:57:13;;;;;;;3.80;3.50;;;10.60;99.90;;;;;;5102736;28;20453;-68
2021/05/14 07:59:39;;;;;;;3.37;3.07;;;10.60;99.90;;;;;;5101956;28;20445;-68
2021/05/14 08:02:07;;;;;;;3.47;3.17;;;10.60;99.90;;;;;;5097950;28;20457;-67
2021/05/14 08:04:34;;;;;;;2.77;2.57;;;10.70;99.90;;;;;;5098710;28;21002;-68
2021/05/14 08:07:02;;;;;;;4.00;2.80;;;10.80;99.90;;;;;;5096440;28;20453;-68
2021/05/14 08:09:29;;;;;;;2.47;2.27;;;10.80;99.90;;;;;;5099867;28;20469;-69
2021/05/14 08:11:55;;;;;;;2.90;2.63;;;10.80;99.90;;;;;;5099571;28;20476;-70
2021/05/14 08:14:21;;;;;;;2.80;2.43;;;10.90;99.90;;;;;;5100051;28;20467;-69
2021/05/14 08:16:48;;;;;;;2.40;2.20;;;10.90;99.90;;;;;;5099967;28;20770;-69
2021/05/14 08:19:14;;;;;;;2.63;2.00;;;10.90;99.90;;;;;;5100030;28;20460;-69
2021/05/14 08:21:41;;;;;;;1.90;1.80;;;11.00;99.90;;;;;;5106153;28;20453;-69
2021/05/14 08:24:09;;;;;;;2.10;1.87;;;11.10;99.90;;;;;;5109412;28;20469;-69
2021/05/14 08:26:38;;;;;;;1.80;1.70;;;11.10;99.90;;;;;;5110285;28;20456;-69
2021/05/14 08:29:04;;;;;;;1.90;1.70;;;11.20;99.90;;;;;;5109088;28;20473;-69
2021/05/14 08:31:32;;;;;;;2.37;2.17;;;11.20;99.90;;;;;;5110826;28;20477;-69
2021/05/14 08:33:59;;;;;;;1.90;1.70;;;11.20;99.90;;;;;;5107296;28;20472;-67
2021/05/14 08:36:25;;;;;;;1.93;1.80;;;11.20;99.90;;;;;;5099763;28;20464;-67
2021/05/14 08:38:51;;;;;;;2.23;2.00;;;11.20;99.90;;;;;;5099092;28;20454;-67
2021/05/14 08:41:19;;;;;;;1.60;1.50;;;11.20;99.90;;;;;;5099241;28;20457;-67
2021/05/14 08:43:46;;;;;;;1.60;1.50;;;11.20;99.90;;;;;;5099232;28;20765;-67
2021/05/14 08:46:14;;;;;;;2.27;1.60;;;11.20;99.90;;;;;;5098920;28;20453;-67
2021/05/14 08:48:44;;;;;;;3.17;1.63;;;11.20;99.90;;;;;;5099003;28;20479;-67
2021/05/14 08:51:12;;;;;;;1.77;1.67;;;11.20;99.90;;;;;;5099579;28;20453;-66
2021/05/14 08:53:47;;;;;;;3.00;2.17;;;11.10;99.90;;;;;;5099211;28;20457;-67
2021/05/14 08:56:16;;;;;;;2.30;2.10;;;11.10;99.90;;;;;;5099092;28;20447;-67
2021/05/14 08:58:42;;;;;;;1.77;1.67;;;11.20;99.90;;;;;;5099345;28;20917;-66
2021/05/14 09:01:09;;;;;;;1.60;1.50;;;11.10;99.90;;;;;;5099353;28;20467;-66
2021/05/14 09:04:01;;;;;;;2.20;2.00;;;11.00;99.90;;;;;;5099104;28;20480;-67
2021/05/14 09:06:31;;;;;;;1.97;1.80;;;11.00;99.90;;;;;;5098984;28;20456;-66
2021/05/14 09:09:00;;;;;;;2.90;2.60;;;10.90;99.90;;;;;;5099148;28;20461;-66
2021/05/14 09:11:34;;;;;;;2.50;2.30;;;10.80;99.90;;;;;;5099073;28;20487;-66
2021/05/14 09:14:00;;;;;;;2.20;2.00;;;10.70;99.90;;;;;;5098992;28;20456;-67
2021/05/14 09:16:39;;;;;;;2.20;2.00;;;10.70;99.90;;;;;;5099583;28;20464;-67
2021/05/14 09:19:05;;;;;;;2.57;2.23;;;10.60;99.90;;;;;;5096888;28;20890;-67
2021/05/14 09:21:31;;;;;;;2.40;2.20;;;10.50;99.90;;;;;;5098258;28;20932;-67
2021/05/14 09:23:58;;;;;;;2.60;2.10;;;10.60;99.90;;;;;;5098500;28;20457;-67
2021/05/14 09:26:29;;;;;;;2.13;1.93;;;10.50;99.90;;;;;;5098517;28;20530;-67
2021/05/14 09:28:58;;;;;;;3.40;3.00;;;10.50;99.90;;;;;;5098420;28;20473;-67
2021/05/14 09:31:25;;;;;;;2.67;2.47;;;10.50;99.90;;;;;;5098598;28;20485;-67
2021/05/14 09:33:54;;;;;;;3.57;3.23;;;10.50;99.90;;;;;;5099274;28;20521;-67
2021/05/14 09:36:23;;;;;;;5.10;4.03;;;10.40;99.90;;;;;;5100531;28;20532;-67
2021/05/14 09:38:51;;;;;;;4.13;3.73;;;10.40;99.90;;;;;;5100826;28;20453;-67
2021/05/14 09:41:32;;;;;;;4.03;3.63;;;10.40;99.90;;;;;;5101632;28;20468;-66
2021/05/14 09:44:04;;;;;;;4.00;3.40;;;10.40;99.90;;;;;;5099826;28;20758;-67
2021/05/14 09:46:37;;;;;;;3.37;2.90;;;10.30;99.90;;;;;;5099959;28;20548;-68
2021/05/14 09:49:09;;;;;;;4.13;3.20;;;10.30;99.90;;;;;;5099289;28;20458;-67
2021/05/14 09:51:46;;;;;;;2.93;2.43;;;10.20;99.90;;;;;;5098977;28;20442;-67
2021/05/14 09:54:29;;;;;;;3.80;3.47;;;10.20;99.90;;;;;;5097808;28;20599;-67
2021/05/14 09:57:18;;;;;;;3.23;2.97;;;10.20;99.90;;;;;;5098060;28;20460;-66
2021/05/14 09:59:45;;;;;;;2.70;2.50;;;10.30;99.90;;;;;;5098115;28;20604;-66
2021/05/14 10:02:22;;;;;;;3.00;2.70;;;10.30;99.90;;;;;;5098946;28;20510;-66
2021/05/14 10:04:50;;;;;;;3.77;2.00;;;10.40;99.90;;;;;;5097883;28;20953;-66
2021/05/14 10:07:17;;;;;;;2.50;2.10;;;10.40;99.90;;;;;;5098646;28;20482;-66
2021/05/14 10:09:51;;;;;;;4.20;2.20;;;10.40;99.90;;;;;;5098773;28;20503;-66
2021/05/14 10:12:19;;;;;;;6.23;4.20;;;10.40;99.90;;;;;;5098249;28;20835;-67
2021/05/14 10:14:45;;;;;;;3.10;2.43;;;10.40;99.90;;;;;;5098573;28;20465;-66
2021/05/14 10:17:12;;;;;;;10.20;3.03;;;10.40;99.90;;;;;;5098708;28;20519;-67
2021/05/14 10:19:40;;;;;;;3.40;2.30;;;10.50;99.90;;;;;;5098523;28;20454;-67
2021/05/14 10:22:08;;;;;;;1.97;1.57;;;10.50;99.90;;;;;;5099077;28;20804;-66
2021/05/14 10:24:38;;;;;;;2.50;1.80;;;10.50;99.90;;;;;;5099752;28;20894;-66
2021/05/14 10:27:13;;;;;;;3.10;2.23;;;10.40;99.90;;;;;;5097881;28;20450;-66
2021/05/14 10:29:43;;;;;;;2.20;2.00;;;10.40;99.90;;;;;;5097529;28;20468;-67
2021/05/14 10:32:10;;;;;;;5.13;2.33;;;10.40;99.90;;;;;;5097221;28;20496;-66
2021/05/14 10:34:39;;;;;;;3.30;2.40;;;10.30;99.90;;;;;;5097859;28;20780;-66
2021/05/14 10:37:05;;;;;;;4.53;2.40;;;10.30;99.90;;;;;;5097845;28;20454;-67
2021/05/14 10:39:35;;;;;;;3.67;2.50;;;10.30;99.90;;;;;;5097598;28;20479;-67
2021/05/14 10:42:07;;;;;;;5.33;2.40;;;10.20;99.90;;;;;;5097444;28;20782;-65
2021/05/14 10:44:47;;;;;;;2.43;2.20;;;10.20;99.90;;;;;;5097453;28;20441;-66
2021/05/14 10:47:55;;;;;;;5.17;2.47;;;10.30;99.90;;;;;;5097866;28;20433;-67
2021/05/14 10:50:34;;;;;;;4.23;2.20;;;10.30;99.90;;;;;;5097733;28;20472;-66
2021/05/14 10:53:35;;;;;;;3.83;2.30;;;10.50;99.90;;;;;;5099733;28;20456;-66
2021/05/14 10:56:49;;;;;;;3.10;2.40;;;10.60;99.90;;;;;;5038615;28;20443;-66
2021/05/14 10:59:15;;;;;;;3.60;2.30;;;10.70;99.90;;;;;;5098049;28;20506;-66
2021/05/14 11:01:43;;;;;;;2.67;1.90;;;10.70;99.90;;;;;;5098107;28;20454;-66
2021/05/14 11:04:43;;;;;;;3.10;2.20;;;10.80;99.90;;;;;;5098118;28;20809;-65
2021/05/14 11:07:34;;;;;;;3.23;2.07;;;10.90;99.90;;;;;;5035648;28;20521;-67
2021/05/14 11:10:29;;;;;;;4.37;2.10;;;11.00;99.90;;;;;;5034870;28;20479;-66
2021/05/14 11:12:56;;;;;;;3.10;2.10;;;11.00;99.90;;;;;;5085933;28;20468;-66
2021/05/14 11:15:36;;;;;;;3.57;2.33;;;11.00;99.90;;;;;;5097394;28;20457;-65
2021/05/14 11:18:25;;;;;;;2.83;2.20;;;11.20;99.90;;;;;;5098391;28;20457;-68
2021/05/14 11:20:53;;;;;;;4.47;2.17;;;11.40;99.90;;;;;;5097703;28;20813;-66
2021/05/14 11:23:37;;;;;;;6.13;2.40;;;11.50;99.90;;;;;;5097204;28;20461;-66
2021/05/14 11:26:05;;;;;;;3.43;2.77;;;11.60;99.90;;;;;;5096905;28;20460;-66
2021/05/14 11:28:40;;;;;;;2.73;2.20;;;11.70;99.90;;;;;;5097388;28;20469;-66
2021/05/14 11:31:12;;;;;;;3.00;2.43;;;11.80;99.90;;;;;;5096363;28;20484;-67
2021/05/14 11:33:42;;;;;;;3.87;2.40;;;12.00;99.90;;;;;;5097971;28;20437;-69
2021/05/14 11:36:09;;;;;;;3.27;2.53;;;12.30;99.90;;;;;;5096798;28;20514;-67
2021/05/14 11:38:35;;;;;;;4.20;3.00;;;12.50;99.90;;;;;;5096372;28;20518;-67
2021/05/14 11:41:02;;;;;;;3.37;2.40;;;12.50;99.90;;;;;;5096546;28;20489;-67
2021/05/14 11:43:29;;;;;;;3.50;2.50;;;12.60;99.90;;;;;;5096303;28;20533;-68
2021/05/14 11:45:57;;;;;;;2.97;2.20;;;12.50;99.90;;;;;;5096715;28;20504;-67
2021/05/14 11:48:28;;;;;;;2.63;2.40;;;12.30;99.90;;;;;;5096566;28;20926;-67
2021/05/14 11:50:58;;;;;;;6.60;2.90;;;12.20;99.90;;;;;;5096973;28;20476;-68
2021/05/14 11:53:28;;;;;;;3.07;2.73;;;12.10;99.90;;;;;;5096754;28;20772;-67
2021/05/14 11:55:55;;;;;;;2.80;2.60;;;12.00;99.90;;;;;;5097185;28;20763;-68
2021/05/14 11:58:25;;;;;;;3.20;2.90;;;11.90;99.90;;;;;;5096797;28;20972;-69
2021/05/14 12:00:52;;;;;;;3.40;3.10;;;11.90;99.90;;;;;;5097439;28;20499;-68
2021/05/14 12:03:22;;;;;;;4.10;3.20;;;11.90;99.90;;;;;;5096728;28;20460;-67
2021/05/14 12:05:49;;;;;;;5.47;3.40;;;12.00;99.90;;;;;;5097010;28;20523;-68
2021/05/14 12:08:19;;;;;;;3.20;2.90;;;12.00;99.90;;;;;;5096175;28;20488;-66
2021/05/14 12:10:47;;;;;;;4.33;3.10;;;12.00;99.90;;;;;;5096654;28;20484;-67
2021/05/14 12:13:14;;;;;;;4.13;3.10;;;12.00;99.90;;;;;;5096299;28;20474;-67
2021/05/14 12:15:40;;;;;;;3.83;3.43;;;11.90;99.90;;;;;;5096163;28;20453;-66
2021/05/14 12:18:07;;;;;;;2.77;2.53;;;11.90;99.90;;;;;;5096541;28;20454;-68
2021/05/14 12:20:38;;;;;;;3.57;3.27;;;12.00;99.90;;;;;;5096262;28;20453;-67
2021/05/14 12:23:06;;;;;;;4.10;2.80;;;12.00;99.90;;;;;;5096550;28;20452;-70
2021/05/14 12:25:43;;;;;;;3.20;2.90;;;12.10;99.90;;;;;;5096187;28;20523;-67
2021/05/14 12:28:29;;;;;;;3.57;2.87;;;12.10;99.90;;;;;;5096021;28;20461;-66
2021/05/14 12:30:55;;;;;;;3.60;2.93;;;12.10;99.90;;;;;;5095221;28;20810;-66
2021/05/14 12:33:22;;;;;;;4.33;3.70;;;12.00;99.90;;;;;;5096067;28;20449;-67
2021/05/14 12:35:56;;;;;;;5.43;3.60;;;12.00;99.90;;;;;;5095285;28;20453;-67
2021/05/14 12:38:40;;;;;;;4.00;3.60;;;12.00;99.90;;;;;;5095676;28;20444;-66
2021/05/14 12:41:26;;;;;;;5.03;3.50;;;12.00;99.90;;;;;;5095871;28;20480;-66
2021/05/14 12:44:10;;;;;;;4.40;3.57;;;12.00;99.90;;;;;;5095278;28;20445;-66
2021/05/14 12:46:37;;;;;;;5.23;3.27;;;11.80;99.90;;;;;;5095082;28;20771;-66
2021/05/14 12:49:10;;;;;;;4.80;2.60;;;11.70;99.90;;;;;;5095315;28;20552;-65
2021/05/14 12:51:38;;;;;;;3.80;3.00;;;11.60;99.90;;;;;;5095264;28;20454;-66
2021/05/14 12:54:05;;;;;;;3.63;3.33;;;11.60;99.90;;;;;;5097135;28;20741;-66
2021/05/14 12:56:32;;;;;;;4.13;3.60;;;11.60;99.90;;;;;;5098821;28;20539;-66
2021/05/14 12:58:58;;;;;;;2.90;2.70;;;11.70;99.90;;;;;;5098483;28;20467;-67